Flugplatz Uetersen/Heist

METAR ETMN TAF ETMN
5 °C
°C
-
°C
38m
Âge
19:57:42
LT
18:57
UTC
0 ft

1.000

2.000

3.000

4.000

5.000

FEW 1.800
VFR
<?= Yii::t('app', 'Wind direction') ?> <?= Yii::t('app', 'of'); ?>
310°
08:14
Lever du soleil
76%
Humidité
Cisaillement du vent
Fermé/neige
Portée visuelle RWY
Condition RWY
Visibilité vert.
Visibilité min.
CAVOK
Tendance
Correction
Rapport spécial
1014 hPa
QNH
METAR ETMN 301820Z 31020KT 9999 FEW018 05/01 Q1014 BLU+BLU+ TEMPO BLU
Quelques nuages
13 kt
13 kt
19:00
MVFR
20 kt
20:00
MVFR
20 kt
21:00
MVFR
20 kt
22:00
MVFR
20 kt
23:00
MVFR
20 kt
00:00
MVFR
20 kt
01:00
VFR
15 kt
10 km+
Vue
Non
Base cloud
20 kt
Vent
metar-taf.com/EDHE

Metar-Taf.com

Décodeur visuel

Nous et des tiers suivons ton comportement Internet sur notre site Web à l'aide de cookies. Si tu continues, nous supposons que tu es d'accord avec notre Politique en matière de cookies.